createdAt,value
2019-04-22T00:02:07.973Z,12.30
2019-04-22T00:04:50.878Z,12.30
2019-04-22T00:07:39.191Z,12.30
2019-04-22T00:10:12.724Z,12.40
2019-04-22T00:12:42.823Z,12.40
2019-04-22T00:15:10.078Z,12.50
2019-04-22T00:17:58.844Z,12.60
2019-04-22T00:20:20.281Z,12.50
2019-04-22T00:22:47.959Z,12.40
2019-04-22T00:25:19.338Z,12.40
2019-04-22T00:27:47.690Z,12.30
2019-04-22T00:30:30.978Z,12.30
2019-04-22T00:33:07.908Z,12.30
2019-04-22T00:35:49.375Z,12.40
2019-04-22T00:38:28.422Z,12.20
2019-04-22T00:40:56.475Z,12.30
2019-04-22T00:43:24.298Z,12.20
2019-04-22T00:45:57.827Z,12.20
2019-04-22T00:48:27.354Z,12.20
2019-04-22T00:51:17.555Z,12.20
2019-04-22T00:53:41.631Z,12.30
2019-04-22T00:56:18.702Z,12.20
2019-04-22T00:58:48.491Z,12.30
2019-04-22T01:03:51.056Z,12.30
2019-04-22T01:08:53.732Z,12.20
2019-04-22T01:11:23.063Z,12.20
2019-04-22T01:13:53.306Z,12.30
2019-04-22T01:16:32.447Z,12.20
2019-04-22T01:19:07.188Z,12.20
2019-04-22T01:21:40.804Z,12.20
2019-04-22T01:24:09.129Z,12.10
2019-04-22T01:26:34.510Z,12.10
2019-04-22T01:29:10.016Z,12.20
2019-04-22T01:31:45.336Z,12.10
2019-04-22T01:34:36.364Z,12.20
2019-04-22T01:37:20.132Z,12.20
2019-04-22T01:39:59.007Z,12.10
2019-04-22T01:42:24.480Z,12.00
2019-04-22T01:44:50.806Z,12.00
2019-04-22T01:47:34.252Z,12.00
2019-04-22T01:49:59.812Z,12.10
2019-04-22T01:52:29.658Z,12.10
2019-04-22T01:55:12.355Z,12.10
2019-04-22T01:57:34.990Z,12.00
2019-04-22T01:59:56.129Z,12.00
2019-04-22T02:02:49.281Z,12.10
2019-04-22T02:05:17.668Z,12.00
2019-04-22T02:08:02.604Z,11.90
2019-04-22T02:10:29.241Z,12.00
2019-04-22T02:12:54.050Z,11.90
2019-04-22T02:15:23.993Z,11.70
2019-04-22T02:18:03.323Z,11.60
2019-04-22T02:20:31.593Z,11.60
2019-04-22T02:36:22.634Z,11.40
2019-04-22T02:41:26.366Z,11.40
2019-04-22T02:44:14.050Z,11.40
2019-04-22T02:51:32.877Z,11.20
2019-04-22T02:59:12.439Z,11.00
2019-04-22T03:01:54.168Z,11.00
2019-04-22T03:06:46.034Z,11.00
2019-04-22T03:09:55.387Z,10.90
2019-04-22T03:12:21.617Z,11.00
2019-04-22T03:22:22.789Z,10.80
2019-04-22T03:27:35.228Z,10.70
2019-04-22T03:38:04.042Z,10.70
2019-04-22T03:43:10.082Z,10.60
2019-04-22T03:45:30.191Z,10.60
2019-04-22T03:48:01.537Z,10.60
2019-04-22T03:53:29.273Z,10.80
2019-04-22T03:55:33.151Z,10.90
2019-04-22T04:03:11.951Z,10.70
2019-04-22T04:10:53.182Z,10.60
2019-04-22T04:13:28.542Z,10.60
2019-04-22T04:16:07.774Z,10.60
2019-04-22T04:19:13.700Z,10.60
2019-04-22T04:24:32.322Z,10.60
2019-04-22T04:27:04.099Z,10.50
2019-04-22T04:34:47.870Z,10.30
2019-04-22T04:39:34.595Z,10.30
2019-04-22T04:44:48.023Z,10.30
2019-04-22T04:47:11.718Z,10.40
2019-04-22T04:49:34.951Z,10.60
2019-04-22T04:52:19.285Z,10.90
2019-04-22T04:57:16.970Z,11.40
2019-04-22T05:00:28.725Z,11.60
2019-04-22T05:02:30.487Z,11.80
2019-04-22T05:05:14.461Z,12.00
2019-04-22T05:10:09.833Z,12.20
2019-04-22T05:15:11.326Z,12.50
2019-04-22T05:20:13.388Z,12.70
2019-04-22T05:22:41.210Z,12.70
2019-04-22T05:30:27.946Z,13.00
2019-04-22T05:35:26.224Z,13.10
2019-04-22T05:37:56.313Z,13.10
2019-04-22T05:43:01.421Z,13.20
2019-04-22T05:45:33.130Z,13.20
2019-04-22T05:50:29.477Z,13.30
2019-04-22T05:53:03.322Z,13.30
2019-04-22T05:55:45.299Z,13.40
2019-04-22T05:58:08.940Z,13.40
2019-04-22T06:01:04.290Z,13.50
2019-04-22T06:03:08.561Z,13.50
2019-04-22T06:06:07.799Z,13.60
2019-04-22T06:08:19.906Z,13.70
2019-04-22T06:13:18.028Z,13.80
2019-04-22T06:16:07.424Z,13.90
2019-04-22T06:18:56.434Z,13.90
2019-04-22T06:21:28.097Z,14.00
2019-04-22T06:24:06.303Z,14.10
2019-04-22T06:26:37.774Z,14.30
2019-04-22T06:29:09.341Z,14.40
2019-04-22T06:31:49.736Z,14.50
2019-04-22T06:34:10.783Z,14.60
2019-04-22T06:36:45.027Z,14.70
2019-04-22T06:39:30.849Z,14.70
2019-04-22T06:42:01.100Z,14.80
2019-04-22T06:44:29.801Z,14.80
2019-04-22T06:47:00.123Z,14.80
2019-04-22T06:49:30.025Z,14.90
2019-04-22T06:54:45.569Z,15.00
2019-04-22T06:57:06.339Z,15.10
2019-04-22T06:59:45.734Z,15.00
2019-04-22T07:02:16.923Z,15.10
2019-04-22T07:05:02.937Z,15.10
2019-04-22T07:07:31.498Z,15.10
2019-04-22T07:10:20.509Z,15.20
2019-04-22T07:12:46.922Z,15.30
2019-04-22T07:15:24.394Z,15.40
2019-04-22T07:20:36.758Z,15.60
2019-04-22T07:23:13.410Z,15.70
2019-04-22T07:25:40.809Z,15.60
2019-04-22T07:31:02.414Z,15.70
2019-04-22T07:33:32.366Z,15.90
2019-04-22T07:36:30.539Z,15.90
2019-04-22T07:38:35.944Z,16.00
2019-04-22T07:41:27.281Z,16.00
2019-04-22T07:44:01.393Z,16.10
2019-04-22T07:46:19.815Z,16.10
2019-04-22T07:49:08.338Z,16.20
2019-04-22T07:51:21.636Z,16.20
2019-04-22T07:53:48.961Z,16.20
2019-04-22T07:56:18.775Z,16.20
2019-04-22T07:58:48.981Z,16.20
2019-04-22T08:01:39.958Z,16.20
2019-04-22T08:04:16.149Z,16.30
2019-04-22T08:06:52.340Z,16.30
2019-04-22T08:09:20.952Z,16.30
2019-04-22T08:11:50.001Z,16.40
2019-04-22T08:14:26.838Z,16.40
2019-04-22T08:16:52.661Z,16.50
2019-04-22T08:19:24.949Z,16.50
2019-04-22T08:21:52.210Z,16.60
2019-04-22T08:24:22.738Z,16.50
2019-04-22T08:26:54.701Z,16.50
2019-04-22T08:29:35.471Z,16.60
2019-04-22T08:31:57.950Z,16.80
2019-04-22T08:34:31.032Z,16.80
2019-04-22T08:39:49.984Z,16.80
2019-04-22T08:42:16.252Z,16.90
2019-04-22T08:45:08.030Z,16.90
2019-04-22T08:49:50.674Z,16.80
2019-04-22T08:52:17.874Z,16.90
2019-04-22T08:54:43.720Z,17.20
2019-04-22T08:57:20.452Z,17.30
2019-04-22T08:59:53.105Z,17.40
2019-04-22T09:02:25.980Z,17.40
2019-04-22T09:05:00.364Z,17.40
2019-04-22T09:07:50.316Z,17.50
2019-04-22T09:10:18.908Z,17.50
2019-04-22T09:12:57.647Z,17.40
2019-04-22T09:15:20.468Z,17.50
2019-04-22T09:17:55.855Z,17.50
2019-04-22T09:20:23.385Z,17.50
2019-04-22T09:22:53.934Z,17.60
2019-04-22T09:25:26.900Z,17.70
2019-04-22T09:28:10.549Z,17.70
2019-04-22T09:30:34.366Z,17.50
2019-04-22T09:33:09.622Z,17.60
2019-04-22T09:35:37.532Z,17.70
2019-04-22T09:38:33.209Z,17.90
2019-04-22T09:40:43.023Z,18.00
2019-04-22T09:43:11.488Z,18.00
2019-04-22T09:45:43.651Z,18.00
2019-04-22T09:48:18.186Z,18.10
2019-04-22T09:53:15.061Z,18.20
2019-04-22T09:55:50.000Z,18.00
2019-04-22T09:58:29.574Z,17.90
2019-04-22T10:01:18.686Z,17.80
2019-04-22T10:03:45.209Z,18.00
2019-04-22T10:06:23.284Z,18.00
2019-04-22T10:09:08.458Z,17.90
2019-04-22T10:11:28.726Z,18.00
2019-04-22T10:13:53.856Z,18.20
2019-04-22T10:16:28.676Z,18.20
2019-04-22T10:18:54.037Z,18.30
2019-04-22T10:21:27.359Z,18.30
2019-04-22T10:23:53.281Z,18.50
2019-04-22T10:26:31.768Z,18.70
2019-04-22T10:29:04.627Z,18.90
2019-04-22T10:31:34.828Z,18.90
2019-04-22T10:33:49.526Z,19.00
2019-04-22T10:36:07.940Z,19.00
2019-04-22T10:38:40.220Z,18.90
2019-04-22T10:41:10.446Z,19.10
2019-04-22T10:43:41.225Z,19.10
2019-04-22T10:46:12.156Z,19.20
2019-04-22T10:48:48.692Z,19.30
2019-04-22T10:51:19.008Z,19.50
2019-04-22T10:53:49.388Z,19.60
2019-04-22T10:56:32.605Z,19.60
2019-04-22T10:59:28.912Z,19.60
2019-04-22T11:01:59.206Z,19.30
2019-04-22T11:04:30.194Z,19.20
2019-04-22T11:07:05.521Z,19.30
2019-04-22T11:09:49.329Z,19.30
2019-04-22T11:12:16.800Z,19.40
2019-04-22T11:14:43.341Z,19.40
2019-04-22T11:17:13.580Z,19.50
2019-04-22T11:19:45.743Z,19.50
2019-04-22T11:22:20.717Z,19.20
2019-04-22T11:24:46.660Z,19.20
2019-04-22T11:27:16.978Z,19.30
2019-04-22T11:29:47.719Z,19.30
2019-04-22T11:32:26.619Z,19.30
2019-04-22T11:34:56.049Z,19.20
2019-04-22T11:37:26.180Z,19.30
2019-04-22T11:40:10.478Z,19.30
2019-04-22T11:42:36.371Z,19.30
2019-04-22T11:45:09.157Z,19.20
2019-04-22T11:47:39.327Z,19.20
2019-04-22T11:50:10.456Z,19.20
2019-04-22T11:52:40.607Z,19.20
2019-04-22T11:55:17.038Z,19.20
2019-04-22T11:58:02.974Z,19.40
2019-04-22T12:00:36.782Z,19.50
2019-04-22T12:03:07.100Z,19.30
2019-04-22T12:05:39.794Z,19.20
2019-04-22T12:08:13.197Z,19.20
2019-04-22T12:10:49.211Z,19.20
2019-04-22T12:13:21.871Z,19.20
2019-04-22T12:15:51.227Z,19.20
2019-04-22T12:18:21.181Z,19.20
2019-04-22T12:21:01.311Z,19.30
2019-04-22T12:23:48.669Z,19.20
2019-04-22T12:26:22.915Z,19.00
2019-04-22T12:28:53.233Z,18.80
2019-04-22T12:31:23.661Z,18.60
2019-04-22T12:33:57.165Z,18.60
2019-04-22T12:36:26.634Z,18.70
2019-04-22T12:38:55.750Z,18.60
2019-04-22T12:41:25.837Z,18.70
2019-04-22T12:43:55.498Z,18.80
2019-04-22T12:46:28.064Z,18.70
2019-04-22T12:48:58.285Z,18.80
2019-04-22T12:51:27.327Z,18.90
2019-04-22T12:53:57.214Z,18.90
2019-04-22T12:56:29.804Z,18.90
2019-04-22T12:58:59.370Z,18.80
2019-04-22T13:01:30.791Z,18.80
2019-04-22T13:04:05.789Z,18.70
2019-04-22T13:06:30.305Z,18.70
2019-04-22T13:09:00.376Z,18.90
2019-04-22T13:11:32.783Z,18.90
2019-04-22T13:14:00.946Z,18.60
2019-04-22T13:16:31.295Z,18.50
2019-04-22T13:19:06.963Z,18.50
2019-04-22T13:21:31.258Z,18.70
2019-04-22T13:24:00.917Z,19.10
2019-04-22T13:26:29.909Z,19.20
2019-04-22T13:29:05.220Z,19.10
2019-04-22T13:31:34.936Z,19.00
2019-04-22T13:34:13.317Z,19.00
2019-04-22T13:36:41.794Z,18.90
2019-04-22T13:39:13.290Z,19.00
2019-04-22T13:41:49.734Z,19.10
2019-04-22T13:44:12.980Z,19.10
2019-04-22T13:47:04.136Z,19.00
2019-04-22T13:49:40.443Z,18.90
2019-04-22T13:52:21.059Z,19.00
2019-04-22T13:57:03.906Z,18.90
2019-04-22T13:59:23.039Z,18.70
2019-04-22T14:02:04.460Z,18.60
2019-04-22T14:04:36.841Z,18.70
2019-04-22T14:07:07.167Z,18.80
2019-04-22T14:09:38.193Z,18.70
2019-04-22T14:12:09.422Z,18.70
2019-04-22T14:14:40.730Z,18.70
2019-04-22T14:17:09.101Z,18.70
2019-04-22T14:19:39.143Z,18.70
2019-04-22T14:22:09.497Z,19.00
2019-04-22T14:24:38.717Z,19.20
2019-04-22T14:27:21.873Z,19.20
2019-04-22T14:29:39.659Z,19.20
2019-04-22T14:32:16.614Z,19.00
2019-04-22T14:34:39.234Z,18.80
2019-04-22T14:37:08.089Z,18.70
2019-04-22T14:39:38.259Z,18.70
2019-04-22T14:42:28.467Z,18.60
2019-04-22T14:47:32.692Z,18.20
2019-04-22T14:50:02.806Z,18.40
2019-04-22T14:52:36.003Z,18.60
2019-04-22T14:54:51.984Z,18.70
2019-04-22T14:57:11.101Z,18.70
2019-04-22T14:59:39.984Z,18.70
2019-04-22T15:02:09.780Z,18.60
2019-04-22T15:04:39.288Z,18.40
2019-04-22T15:07:08.885Z,18.20
2019-04-22T15:09:37.941Z,18.00
2019-04-22T15:12:17.499Z,18.10
2019-04-22T15:14:39.597Z,17.90
2019-04-22T15:17:21.151Z,17.80
2019-04-22T15:20:14.051Z,17.70
2019-04-22T15:22:44.280Z,17.70
2019-04-22T15:25:14.494Z,17.80
2019-04-22T15:27:43.585Z,17.80
2019-04-22T15:30:12.941Z,17.60
2019-04-22T15:32:43.137Z,17.60
2019-04-22T15:35:13.400Z,17.60
2019-04-22T15:37:43.374Z,17.70
2019-04-22T15:40:13.163Z,17.70
2019-04-22T15:42:43.777Z,17.60
2019-04-22T15:45:15.046Z,17.50
2019-04-22T15:47:44.047Z,17.50
2019-04-22T15:50:14.192Z,17.80
2019-04-22T15:52:47.912Z,17.70
2019-04-22T15:55:14.613Z,17.50
2019-04-22T15:57:43.945Z,17.40
2019-04-22T16:00:26.848Z,17.60
2019-04-22T16:02:43.860Z,17.60
2019-04-22T16:05:13.132Z,17.80
2019-04-22T16:07:42.282Z,17.70
2019-04-22T16:10:12.243Z,17.70
2019-04-22T16:12:52.139Z,17.40
2019-04-22T16:15:13.210Z,17.30
2019-04-22T16:17:42.539Z,17.00
2019-04-22T16:20:13.086Z,16.70
2019-04-22T16:23:01.436Z,16.40
2019-04-22T16:25:49.353Z,16.10
2019-04-22T16:28:19.513Z,15.90
2019-04-22T16:30:48.951Z,15.70
2019-04-22T16:33:19.332Z,15.50
2019-04-22T16:35:48.967Z,15.20
2019-04-22T16:38:19.181Z,15.10
2019-04-22T16:40:48.633Z,15.00
2019-04-22T16:43:17.852Z,15.00
2019-04-22T16:45:47.737Z,14.90
2019-04-22T16:48:17.745Z,14.90
2019-04-22T16:50:48.753Z,14.80
2019-04-22T16:53:18.908Z,14.70
2019-04-22T16:55:48.896Z,14.60
2019-04-22T16:58:18.918Z,14.50
2019-04-22T17:00:49.682Z,14.50
2019-04-22T17:03:36.865Z,14.50
2019-04-22T17:06:14.214Z,14.40
2019-04-22T17:08:44.386Z,14.30
2019-04-22T17:11:13.722Z,14.20
2019-04-22T17:13:44.596Z,14.10
2019-04-22T17:16:13.875Z,14.00
2019-04-22T17:18:43.621Z,13.90
2019-04-22T17:21:14.503Z,13.90
2019-04-22T17:23:43.627Z,13.80
2019-04-22T17:26:18.832Z,13.70
2019-04-22T17:28:49.220Z,13.70
2019-04-22T17:31:18.652Z,13.60
2019-04-22T17:33:48.833Z,13.60
2019-04-22T17:36:18.367Z,13.50
2019-04-22T17:38:55.087Z,13.40
2019-04-22T17:41:28.332Z,13.30
2019-04-22T17:44:12.235Z,13.10
2019-04-22T17:46:45.636Z,13.10
2019-04-22T17:49:35.552Z,13.00
2019-04-22T17:52:32.764Z,12.90
2019-04-22T17:54:49.407Z,12.90
2019-04-22T17:57:24.075Z,12.80
2019-04-22T17:59:50.557Z,12.70
2019-04-22T18:02:24.977Z,12.60
2019-04-22T18:04:49.587Z,12.60
2019-04-22T18:07:35.537Z,12.50
2019-04-22T18:10:24.256Z,12.40
2019-04-22T18:12:37.062Z,12.30
2019-04-22T18:15:07.156Z,12.20
2019-04-22T18:17:37.336Z,12.10
2019-04-22T18:20:02.592Z,12.10
2019-04-22T18:22:27.408Z,12.00
2019-04-22T18:24:56.887Z,12.00
2019-04-22T18:30:02.185Z,11.80
2019-04-22T18:32:30.166Z,11.70
2019-04-22T18:35:02.805Z,11.70
2019-04-22T18:37:41.033Z,11.50
2019-04-22T18:40:10.216Z,11.40
2019-04-22T18:42:32.755Z,11.40
2019-04-22T18:45:23.267Z,11.30
2019-04-22T18:47:38.929Z,11.20
2019-04-22T18:50:08.609Z,11.20
2019-04-22T18:52:48.738Z,11.10
2019-04-22T18:55:30.749Z,11.10
2019-04-22T18:58:06.707Z,11.00
2019-04-22T19:00:27.461Z,10.90
2019-04-22T19:03:05.328Z,10.90
2019-04-22T19:05:45.468Z,10.90
2019-04-22T19:08:23.103Z,10.80
2019-04-22T19:10:57.600Z,10.70
2019-04-22T19:13:51.271Z,10.70
2019-04-22T19:16:11.176Z,10.60
2019-04-22T19:18:32.394Z,10.60
2019-04-22T19:21:02.359Z,10.60
2019-04-22T19:23:28.108Z,10.50
2019-04-22T19:26:00.818Z,10.40
2019-04-22T19:28:34.431Z,10.40
2019-04-22T19:31:10.815Z,10.30
2019-04-22T19:33:35.248Z,10.30
2019-04-22T19:36:07.515Z,10.30
2019-04-22T19:38:21.889Z,10.20
2019-04-22T19:41:08.332Z,10.20
2019-04-22T19:43:33.096Z,10.10
2019-04-22T19:46:02.234Z,10.00
2019-04-22T19:48:39.265Z,10.00
2019-04-22T19:51:12.723Z,10.00
2019-04-22T19:53:42.038Z,10.00
2019-04-22T19:56:01.461Z,10.00
2019-04-22T19:58:37.431Z,9.90
2019-04-22T20:01:27.320Z,9.90
2019-04-22T20:06:53.460Z,9.90
2019-04-22T20:09:29.934Z,9.90
2019-04-22T20:11:57.485Z,9.90
2019-04-22T20:14:33.720Z,9.80
2019-04-22T20:16:54.787Z,9.80
2019-04-22T20:19:39.562Z,9.80
2019-04-22T20:22:06.183Z,9.70
2019-04-22T20:24:16.864Z,9.60
2019-04-22T20:27:03.040Z,9.60
2019-04-22T20:29:40.033Z,9.60
2019-04-22T20:32:07.368Z,9.60
2019-04-22T20:34:38.444Z,9.50
2019-04-22T20:37:10.428Z,9.50
2019-04-22T20:39:39.556Z,9.40
2019-04-22T20:42:16.460Z,9.40
2019-04-22T20:44:39.738Z,9.30
2019-04-22T20:47:08.990Z,9.30
2019-04-22T20:49:41.616Z,9.30
2019-04-22T20:52:24.072Z,9.40
2019-04-22T20:54:40.752Z,9.40
2019-04-22T20:57:09.747Z,9.30
2019-04-22T20:59:37.181Z,9.30
2019-04-22T21:02:06.613Z,9.20
2019-04-22T21:04:35.794Z,9.20
2019-04-22T21:07:09.567Z,9.30
2019-04-22T21:09:42.904Z,9.30
2019-04-22T21:12:12.472Z,9.30
2019-04-22T21:14:46.123Z,9.30
2019-04-22T21:17:35.081Z,9.30
2019-04-22T21:20:14.313Z,9.20
2019-04-22T21:22:38.627Z,9.30
2019-04-22T21:25:01.990Z,9.30
2019-04-22T21:27:45.614Z,9.20
2019-04-22T21:30:02.328Z,9.30
2019-04-22T21:32:38.826Z,9.20
2019-04-22T21:35:14.414Z,9.30
2019-04-22T21:37:43.245Z,9.30
2019-04-22T21:40:05.242Z,9.30
2019-04-22T21:42:48.939Z,9.30
2019-04-22T21:45:07.250Z,9.20
2019-04-22T21:47:51.517Z,9.30
2019-04-22T21:52:51.430Z,9.30
2019-04-22T21:55:16.091Z,9.30
2019-04-22T21:58:02.917Z,9.20
2019-04-22T22:00:37.155Z,9.10
2019-04-22T22:03:11.322Z,9.20
2019-04-22T22:05:26.536Z,9.20
2019-04-22T22:07:52.203Z,9.30
2019-04-22T22:10:34.318Z,9.30
2019-04-22T22:13:06.218Z,9.20
2019-04-22T22:15:37.017Z,9.30
2019-04-22T22:18:02.132Z,9.20
2019-04-22T22:20:45.324Z,9.20
2019-04-22T22:23:18.570Z,9.20
2019-04-22T22:25:33.645Z,9.20
2019-04-22T22:28:29.402Z,9.30
2019-04-22T22:30:51.391Z,9.30
2019-04-22T22:33:10.556Z,9.30
2019-04-22T22:35:42.381Z,9.30
2019-04-22T22:38:11.998Z,9.20
2019-04-22T22:40:27.676Z,9.30
2019-04-22T22:42:59.879Z,9.20
2019-04-22T22:45:37.489Z,9.20
2019-04-22T22:48:39.925Z,9.10
2019-04-22T22:50:50.925Z,9.10
2019-04-22T22:55:54.804Z,9.00
2019-04-22T22:58:27.497Z,9.10
2019-04-22T23:00:50.524Z,9.10
2019-04-22T23:03:46.017Z,9.10
2019-04-22T23:06:03.320Z,9.20
2019-04-22T23:08:31.130Z,9.10
2019-04-22T23:11:21.100Z,9.10
2019-04-22T23:13:37.160Z,9.00
2019-04-22T23:16:02.007Z,9.00
2019-04-22T23:18:16.211Z,9.00
2019-04-22T23:20:47.903Z,9.00
2019-04-22T23:26:07.431Z,9.00
2019-04-22T23:28:58.930Z,9.00
2019-04-22T23:31:31.904Z,8.90
2019-04-22T23:34:11.921Z,8.90
2019-04-22T23:37:02.097Z,9.00
2019-04-22T23:39:41.578Z,8.80
2019-04-22T23:42:12.514Z,8.90
2019-04-22T23:44:38.158Z,8.90
2019-04-22T23:47:12.169Z,8.90
2019-04-22T23:49:43.035Z,8.90
2019-04-22T23:52:22.703Z,9.00
2019-04-22T23:54:56.795Z,9.00
2019-04-22T23:57:29.798Z,9.00
2019-04-22T23:59:55.373Z,8.90
